Date,TemperatureHighF,TemperatureAvgF,TemperatureLowF,DewpointHighF,DewpointAvgF,DewpointLowF,HumidityHigh,HumidityAvg,HumidityLow,PressureMaxIn,PressureMinIn,WindSpeedMaxMPH,WindSpeedAvgMPH,GustSpeedMaxMPH,PrecipitationSumIn
2012-12-1,65.5,59.3,56.7,60.6,56.8,54.0,97,92,76,29.95,29.81,8,3,0,1.00
2012-12-2,63.5,56.5,45.3,61.3,53.3,43.4,97,90,71,30.03,29.69,20,5,0,1.69
2012-12-3,63.3,51.0,41.4,51.1,46.4,40.3,97,86,59,30.12,30.02,5,1,0,0.00
2012-12-4,64.9,55.9,46.8,57.0,51.4,45.4,96,86,63,30.15,30.06,10,2,0,0.00
2012-12-5,67.6,61.0,57.9,63.0,58.8,56.8,96,93,84,30.07,29.99,7,1,0,0.35
2012-12-6,64.2,54.9,45.1,56.8,50.2,43.5,96,85,62,30.05,29.98,8,2,0,0.00
2012-12-7,67.1,50.5,41.7,54.1,45.5,39.3,97,84,50,30.06,29.97,4,1,0,0.00
2012-12-8,65.8,48.7,40.1,49.9,43.1,38.8,97,83,49,30.03,29.95,5,1,0,0.00
2012-12-9,70.9,53.2,40.8,49.9,43.1,38.9,93,72,35,30.11,30.00,4,1,0,0.00
2012-12-10,71.4,55.1,45.0,50.0,44.4,40.7,89,70,40,30.15,30.01,4,1,0,0.00
2012-12-11,64.4,50.6,41.2,53.9,46.0,39.6,94,85,67,30.01,29.77,9,2,0,0.00
2012-12-12,56.3,47.5,39.6,48.6,44.0,37.8,95,88,66,29.83,29.74,10,2,0,0.13
2012-12-13,56.8,43.8,36.9,45.3,39.0,34.8,97,84,54,29.85,29.76,5,1,0,0.01
2012-12-14,56.1,44.5,36.0,46.3,40.4,34.2,96,86,67,29.94,29.73,5,1,0,0.00
2012-12-15,47.3,42.3,34.7,45.3,40.6,33.4,96,94,88,30.01,29.90,3,1,0,0.16
2012-12-16,58.6,51.1,42.3,52.9,47.8,40.7,96,89,75,30.03,29.94,9,2,0,0.02
2012-12-17,61.0,52.6,40.8,54.6,49.9,39.2,97,91,75,29.99,29.89,6,2,0,0.39
2012-12-18,56.3,44.2,34.5,40.1,35.9,30.7,95,75,47,30.11,29.91,11,2,0,0.01
2012-12-19,56.1,42.0,30.9,37.4,30.6,22.3,90,68,29,30.24,30.11,5,2,0,0.00
2012-12-20,61.9,47.4,31.8,44.6,37.4,28.4,92,70,53,30.14,29.92,11,4,0,0.00
2012-12-21,55.6,53.2,50.5,52.5,47.9,41.3,97,83,65,29.91,29.78,14,5,0,0.47
2012-12-22,59.2,53.6,48.7,53.1,48.8,46.2,94,84,66,30.01,29.75,19,5,0,1.31
2012-12-23,58.1,52.8,45.0,56.0,50.3,43.7,95,91,83,30.00,29.76,15,4,0,2.79
2012-12-24,59.9,47.9,40.1,50.2,43.4,38.5,97,86,59,30.13,29.94,5,1,0,0.01
2012-12-25,53.6,45.9,39.0,49.4,43.2,36.9,94,91,74,30.07,29.70,10,2,0,0.51
2012-12-26,55.8,48.0,41.7,52.6,44.8,40.6,97,89,75,30.02,29.79,8,2,0,0.19
2012-12-27,58.3,47.0,38.1,44.2,40.3,36.0,93,79,53,30.09,30.02,5,1,0,0.00
2012-12-28,55.0,43.8,35.6,43.8,39.9,34.0,96,87,64,30.10,29.93,4,1,0,0.04
2012-12-29,56.3,45.2,37.4,45.1,41.3,35.8,96,87,62,29.99,29.92,4,1,0,0.30
2012-12-30,58.5,43.3,35.1,45.8,38.4,33.8,97,84,55,30.10,29.96,6,1,0,0.00
2012-12-31,55.9,43.1,32.4,39.4,33.5,27.0,92,72,35,30.23,30.10,4,1,0,0.00